Terminal Aerodrome Forecast
Issued by NWS

Home | Current Version | Previous Version | Text Only | Print | Product List | Glossary On
Versions: 1 2 3 4 5 6 7 8 9 10 11 12 13 14 15
000
FTUS45 KMSO 300520
TAFSMN
TAF
KSMN 300520Z 3006/3106 13005KT P6SM BKN070
     FM301500 VRB03KT P6SM VCSH BKN060
     FM310000 29012KT P6SM -SHRA BKN050 OVC090
      AMD LTD TO CLD VIS AND WIND=

USA.gov is the U.S. government's official web portal to all federal, state and local government web resources and services.